sensor_id;sensor_type;location;lat;lon;timestamp;P1;durP1;ratioP1;P2;durP2;ratioP2
59474;SDS011;45288;51.136;16.928;2023-08-17T00:01:39;26.63;;;7.40;;
59474;SDS011;45288;51.136;16.928;2023-08-17T00:04:05;25.80;;;7.40;;
59474;SDS011;45288;51.136;16.928;2023-08-17T00:06:31;22.20;;;6.47;;
59474;SDS011;45288;51.136;16.928;2023-08-17T00:08:57;28.07;;;7.77;;
59474;SDS011;45288;51.136;16.928;2023-08-17T00:11:22;28.58;;;7.80;;
59474;SDS011;45288;51.136;16.928;2023-08-17T00:13:48;28.25;;;8.13;;
59474;SDS011;45288;51.136;16.928;2023-08-17T00:16:14;27.20;;;7.83;;
59474;SDS011;45288;51.136;16.928;2023-08-17T00:18:40;23.50;;;7.20;;
59474;SDS011;45288;51.136;16.928;2023-08-17T00:21:05;32.27;;;10.53;;
59474;SDS011;45288;51.136;16.928;2023-08-17T00:23:31;27.02;;;7.82;;
59474;SDS011;45288;51.136;16.928;2023-08-17T00:25:58;29.25;;;8.48;;
59474;SDS011;45288;51.136;16.928;2023-08-17T00:28:24;28.52;;;8.23;;
59474;SDS011;45288;51.136;16.928;2023-08-17T00:30:50;26.40;;;8.55;;
59474;SDS011;45288;51.136;16.928;2023-08-17T00:33:16;26.67;;;8.63;;
59474;SDS011;45288;51.136;16.928;2023-08-17T00:35:42;26.02;;;8.07;;
59474;SDS011;45288;51.136;16.928;2023-08-17T00:38:08;30.83;;;9.23;;
59474;SDS011;45288;51.136;16.928;2023-08-17T00:40:34;24.38;;;7.90;;
59474;SDS011;45288;51.136;16.928;2023-08-17T00:43:00;29.95;;;9.30;;
59474;SDS011;45288;51.136;16.928;2023-08-17T00:45:26;28.83;;;9.02;;
59474;SDS011;45288;51.136;16.928;2023-08-17T00:47:53;26.67;;;8.48;;
59474;SDS011;45288;51.136;16.928;2023-08-17T00:50:20;31.45;;;9.43;;
59474;SDS011;45288;51.136;16.928;2023-08-17T00:52:46;24.33;;;8.40;;
59474;SDS011;45288;51.136;16.928;2023-08-17T00:55:12;28.75;;;9.05;;
59474;SDS011;45288;51.136;16.928;2023-08-17T00:57:38;32.63;;;10.57;;
59474;SDS011;45288;51.136;16.928;2023-08-17T01:00:05;71.13;;;64.43;;
59474;SDS011;45288;51.136;16.928;2023-08-17T01:02:31;167.50;;;154.85;;
59474;SDS011;45288;51.136;16.928;2023-08-17T01:04:56;332.77;;;305.87;;
59474;SDS011;45288;51.136;16.928;2023-08-17T01:07:24;387.23;;;355.43;;
59474;SDS011;45288;51.136;16.928;2023-08-17T01:09:50;352.92;;;324.23;;
59474;SDS011;45288;51.136;16.928;2023-08-17T01:12:29;456.10;;;419.03;;
59474;SDS011;45288;51.136;16.928;2023-08-17T01:15:05;768.53;;;706.33;;
59474;SDS011;45288;51.136;16.928;2023-08-17T01:17:38;579.77;;;532.60;;
59474;SDS011;45288;51.136;16.928;2023-08-17T01:20:06;581.97;;;534.55;;
59474;SDS011;45288;51.136;16.928;2023-08-17T01:22:34;568.35;;;522.08;;
59474;SDS011;45288;51.136;16.928;2023-08-17T01:25:01;606.83;;;557.85;;
59474;SDS011;45288;51.136;16.928;2023-08-17T01:27:32;620.13;;;570.00;;
59474;SDS011;45288;51.136;16.928;2023-08-17T01:29:58;673.35;;;618.85;;
59474;SDS011;45288;51.136;16.928;2023-08-17T01:33:27;1002.42;;;926.70;;
59474;SDS011;45288;51.136;16.928;2023-08-17T01:35:43;409.70;;;377.30;;
59474;SDS011;45288;51.136;16.928;2023-08-17T01:38:17;1186.25;;;999.90;;
59474;SDS011;45288;51.136;16.928;2023-08-17T01:40:44;1029.38;;;953.17;;
59474;SDS011;45288;51.136;16.928;2023-08-17T01:43:11;869.38;;;803.17;;
59474;SDS011;45288;51.136;16.928;2023-08-17T01:45:37;637.15;;;586.90;;
59474;SDS011;45288;51.136;16.928;2023-08-17T01:48:03;583.88;;;536.80;;
59474;SDS011;45288;51.136;16.928;2023-08-17T01:50:30;495.33;;;457.00;;
59474;SDS011;45288;51.136;16.928;2023-08-17T01:52:55;582.17;;;535.53;;
59474;SDS011;45288;51.136;16.928;2023-08-17T01:55:22;477.90;;;440.38;;
59474;SDS011;45288;51.136;16.928;2023-08-17T01:57:48;328.85;;;304.40;;
59474;SDS011;45288;51.136;16.928;2023-08-17T02:00:14;364.23;;;336.10;;
59474;SDS011;45288;51.136;16.928;2023-08-17T02:02:40;272.40;;;252.73;;
59474;SDS011;45288;51.136;16.928;2023-08-17T02:05:06;280.80;;;260.27;;
59474;SDS011;45288;51.136;16.928;2023-08-17T02:07:32;231.87;;;215.07;;
59474;SDS011;45288;51.136;16.928;2023-08-17T02:09:58;296.17;;;273.90;;
59474;SDS011;45288;51.136;16.928;2023-08-17T02:12:25;230.13;;;212.98;;
59474;SDS011;45288;51.136;16.928;2023-08-17T02:14:50;300.90;;;278.40;;
59474;SDS011;45288;51.136;16.928;2023-08-17T02:17:16;148.65;;;137.32;;
59474;SDS011;45288;51.136;16.928;2023-08-17T02:19:44;134.03;;;124.17;;
59474;SDS011;45288;51.136;16.928;2023-08-17T02:22:10;135.15;;;124.93;;
59474;SDS011;45288;51.136;16.928;2023-08-17T02:24:36;103.00;;;94.67;;
59474;SDS011;45288;51.136;16.928;2023-08-17T02:27:02;96.90;;;89.45;;
59474;SDS011;45288;51.136;16.928;2023-08-17T02:29:28;63.20;;;57.87;;
59474;SDS011;45288;51.136;16.928;2023-08-17T02:31:54;58.40;;;52.97;;
59474;SDS011;45288;51.136;16.928;2023-08-17T02:34:19;76.87;;;70.13;;
59474;SDS011;45288;51.136;16.928;2023-08-17T02:36:45;47.17;;;42.53;;
59474;SDS011;45288;51.136;16.928;2023-08-17T02:39:11;49.93;;;41.50;;
59474;SDS011;45288;51.136;16.928;2023-08-17T02:41:37;52.55;;;47.40;;
59474;SDS011;45288;51.136;16.928;2023-08-17T02:44:03;56.00;;;46.20;;
59474;SDS011;45288;51.136;16.928;2023-08-17T02:46:29;51.78;;;46.92;;
59474;SDS011;45288;51.136;16.928;2023-08-17T02:48:54;76.20;;;69.73;;
59474;SDS011;45288;51.136;16.928;2023-08-17T02:51:20;71.40;;;65.37;;
59474;SDS011;45288;51.136;16.928;2023-08-17T02:53:46;68.88;;;63.17;;
59474;SDS011;45288;51.136;16.928;2023-08-17T02:56:12;81.47;;;74.45;;
59474;SDS011;45288;51.136;16.928;2023-08-17T02:58:38;121.23;;;112.20;;
59474;SDS011;45288;51.136;16.928;2023-08-17T03:01:06;154.38;;;142.32;;
59474;SDS011;45288;51.136;16.928;2023-08-17T03:03:32;147.52;;;136.65;;
59474;SDS011;45288;51.136;16.928;2023-08-17T03:05:58;140.98;;;130.27;;
59474;SDS011;45288;51.136;16.928;2023-08-17T03:08:23;173.60;;;159.73;;
59474;SDS011;45288;51.136;16.928;2023-08-17T03:10:49;115.50;;;107.03;;
59474;SDS011;45288;51.136;16.928;2023-08-17T03:13:17;126.93;;;117.25;;
59474;SDS011;45288;51.136;16.928;2023-08-17T03:15:43;121.90;;;112.07;;
59474;SDS011;45288;51.136;16.928;2023-08-17T03:18:09;115.30;;;105.75;;
59474;SDS011;45288;51.136;16.928;2023-08-17T03:20:36;106.93;;;98.72;;
59474;SDS011;45288;51.136;16.928;2023-08-17T03:23:02;72.53;;;65.53;;
59474;SDS011;45288;51.136;16.928;2023-08-17T03:25:31;50.90;;;45.60;;
59474;SDS011;45288;51.136;16.928;2023-08-17T03:27:57;49.43;;;44.30;;
59474;SDS011;45288;51.136;16.928;2023-08-17T03:30:23;68.97;;;62.17;;
59474;SDS011;45288;51.136;16.928;2023-08-17T03:32:49;63.20;;;57.95;;
59474;SDS011;45288;51.136;16.928;2023-08-17T03:35:15;44.60;;;33.37;;
59474;SDS011;45288;51.136;16.928;2023-08-17T03:37:42;43.80;;;35.13;;
59474;SDS011;45288;51.136;16.928;2023-08-17T03:40:09;40.63;;;27.83;;
59474;SDS011;45288;51.136;16.928;2023-08-17T03:42:35;34.90;;;21.25;;
59474;SDS011;45288;51.136;16.928;2023-08-17T03:45:01;44.42;;;30.70;;
59474;SDS011;45288;51.136;16.928;2023-08-17T03:47:27;43.53;;;38.75;;
59474;SDS011;45288;51.136;16.928;2023-08-17T03:49:53;40.90;;;35.97;;
59474;SDS011;45288;51.136;16.928;2023-08-17T03:52:19;48.20;;;43.00;;
59474;SDS011;45288;51.136;16.928;2023-08-17T03:54:44;54.10;;;49.20;;
59474;SDS011;45288;51.136;16.928;2023-08-17T03:57:11;51.03;;;45.58;;
59474;SDS011;45288;51.136;16.928;2023-08-17T03:59:37;62.42;;;56.55;;
59474;SDS011;45288;51.136;16.928;2023-08-17T04:02:03;69.50;;;63.00;;
59474;SDS011;45288;51.136;16.928;2023-08-17T04:04:29;95.95;;;87.93;;
59474;SDS011;45288;51.136;16.928;2023-08-17T04:06:56;83.93;;;77.20;;
59474;SDS011;45288;51.136;16.928;2023-08-17T04:09:22;82.68;;;75.57;;
59474;SDS011;45288;51.136;16.928;2023-08-17T04:11:48;52.70;;;46.35;;
59474;SDS011;45288;51.136;16.928;2023-08-17T04:14:14;51.38;;;46.05;;
59474;SDS011;45288;51.136;16.928;2023-08-17T04:16:42;64.97;;;59.13;;
59474;SDS011;45288;51.136;16.928;2023-08-17T04:19:08;83.57;;;76.07;;
59474;SDS011;45288;51.136;16.928;2023-08-17T04:21:34;76.70;;;69.55;;
59474;SDS011;45288;51.136;16.928;2023-08-17T04:24:00;130.43;;;119.57;;
59474;SDS011;45288;51.136;16.928;2023-08-17T04:26:26;135.13;;;124.15;;
59474;SDS011;45288;51.136;16.928;2023-08-17T04:28:51;105.77;;;97.57;;
59474;SDS011;45288;51.136;16.928;2023-08-17T04:31:17;85.43;;;77.78;;
59474;SDS011;45288;51.136;16.928;2023-08-17T04:33:45;76.55;;;69.65;;
59474;SDS011;45288;51.136;16.928;2023-08-17T04:36:13;82.88;;;75.80;;
59474;SDS011;45288;51.136;16.928;2023-08-17T04:38:38;83.70;;;76.50;;
59474;SDS011;45288;51.136;16.928;2023-08-17T04:41:04;66.78;;;60.50;;
59474;SDS011;45288;51.136;16.928;2023-08-17T04:43:31;80.13;;;72.60;;
59474;SDS011;45288;51.136;16.928;2023-08-17T04:45:56;63.63;;;58.07;;
59474;SDS011;45288;51.136;16.928;2023-08-17T04:48:23;70.97;;;64.07;;
59474;SDS011;45288;51.136;16.928;2023-08-17T04:50:49;77.90;;;70.57;;
59474;SDS011;45288;51.136;16.928;2023-08-17T04:53:16;78.05;;;71.28;;
59474;SDS011;45288;51.136;16.928;2023-08-17T04:55:41;91.47;;;83.80;;
59474;SDS011;45288;51.136;16.928;2023-08-17T04:58:08;138.52;;;127.65;;
59474;SDS011;45288;51.136;16.928;2023-08-17T05:00:34;148.87;;;136.83;;
59474;SDS011;45288;51.136;16.928;2023-08-17T05:02:59;142.73;;;131.57;;
59474;SDS011;45288;51.136;16.928;2023-08-17T05:05:31;174.95;;;161.15;;
59474;SDS011;45288;51.136;16.928;2023-08-17T05:07:59;187.27;;;172.98;;
59474;SDS011;45288;51.136;16.928;2023-08-17T05:10:26;190.75;;;175.93;;
59474;SDS011;45288;51.136;16.928;2023-08-17T05:12:52;158.45;;;146.30;;
59474;SDS011;45288;51.136;16.928;2023-08-17T05:15:19;172.85;;;159.00;;
59474;SDS011;45288;51.136;16.928;2023-08-17T05:17:45;106.37;;;97.93;;
59474;SDS011;45288;51.136;16.928;2023-08-17T05:20:12;114.32;;;105.15;;
59474;SDS011;45288;51.136;16.928;2023-08-17T05:22:40;62.70;;;56.67;;
59474;SDS011;45288;51.136;16.928;2023-08-17T05:25:06;55.33;;;49.20;;
59474;SDS011;45288;51.136;16.928;2023-08-17T05:27:34;48.45;;;40.75;;
59474;SDS011;45288;51.136;16.928;2023-08-17T05:30:00;58.50;;;52.83;;
59474;SDS011;45288;51.136;16.928;2023-08-17T05:32:26;49.78;;;41.92;;
59474;SDS011;45288;51.136;16.928;2023-08-17T05:34:53;45.67;;;41.05;;
59474;SDS011;45288;51.136;16.928;2023-08-17T05:37:19;61.03;;;55.53;;
59474;SDS011;45288;51.136;16.928;2023-08-17T05:39:45;56.77;;;51.23;;
59474;SDS011;45288;51.136;16.928;2023-08-17T05:42:11;86.47;;;78.93;;
59474;SDS011;45288;51.136;16.928;2023-08-17T05:44:37;117.50;;;108.15;;
59474;SDS011;45288;51.136;16.928;2023-08-17T05:47:03;101.87;;;93.73;;
59474;SDS011;45288;51.136;16.928;2023-08-17T05:49:29;132.38;;;121.68;;
59474;SDS011;45288;51.136;16.928;2023-08-17T05:51:54;286.27;;;264.00;;
59474;SDS011;45288;51.136;16.928;2023-08-17T05:54:20;340.57;;;313.13;;
59474;SDS011;45288;51.136;16.928;2023-08-17T05:56:46;404.60;;;371.52;;
59474;SDS011;45288;51.136;16.928;2023-08-17T05:59:13;262.63;;;241.55;;
59474;SDS011;45288;51.136;16.928;2023-08-17T06:01:39;352.27;;;323.97;;
59474;SDS011;45288;51.136;16.928;2023-08-17T06:04:05;309.48;;;284.58;;
59474;SDS011;45288;51.136;16.928;2023-08-17T06:06:31;361.35;;;331.17;;
59474;SDS011;45288;51.136;16.928;2023-08-17T06:08:57;279.52;;;257.25;;
59474;SDS011;45288;51.136;16.928;2023-08-17T06:11:23;828.72;;;761.15;;
59474;SDS011;45288;51.136;16.928;2023-08-17T06:13:49;333.53;;;306.00;;
59474;SDS011;45288;51.136;16.928;2023-08-17T06:16:15;65.65;;;58.47;;
59474;SDS011;45288;51.136;16.928;2023-08-17T06:18:41;146.55;;;134.98;;
59474;SDS011;45288;51.136;16.928;2023-08-17T06:21:07;129.17;;;118.60;;
59474;SDS011;45288;51.136;16.928;2023-08-17T06:23:33;113.45;;;103.82;;
59474;SDS011;45288;51.136;16.928;2023-08-17T06:26:00;104.07;;;95.93;;
59474;SDS011;45288;51.136;16.928;2023-08-17T06:28:26;83.27;;;75.67;;
59474;SDS011;45288;51.136;16.928;2023-08-17T06:30:53;53.47;;;48.37;;
59474;SDS011;45288;51.136;16.928;2023-08-17T06:33:19;111.47;;;101.72;;
59474;SDS011;45288;51.136;16.928;2023-08-17T06:35:44;107.28;;;98.60;;
59474;SDS011;45288;51.136;16.928;2023-08-17T06:38:10;108.80;;;100.50;;
59474;SDS011;45288;51.136;16.928;2023-08-17T06:40:36;112.93;;;103.97;;
59474;SDS011;45288;51.136;16.928;2023-08-17T06:43:02;102.55;;;94.10;;
59474;SDS011;45288;51.136;16.928;2023-08-17T06:45:27;80.57;;;74.07;;
59474;SDS011;45288;51.136;16.928;2023-08-17T06:47:53;100.13;;;92.10;;
59474;SDS011;45288;51.136;16.928;2023-08-17T06:50:19;76.47;;;69.22;;
59474;SDS011;45288;51.136;16.928;2023-08-17T06:52:44;72.93;;;66.93;;
59474;SDS011;45288;51.136;16.928;2023-08-17T06:55:10;72.07;;;65.47;;
59474;SDS011;45288;51.136;16.928;2023-08-17T06:57:36;79.78;;;73.13;;
59474;SDS011;45288;51.136;16.928;2023-08-17T07:00:02;101.70;;;92.63;;
59474;SDS011;45288;51.136;16.928;2023-08-17T07:02:31;83.38;;;76.50;;
59474;SDS011;45288;51.136;16.928;2023-08-17T07:04:57;77.05;;;70.55;;
59474;SDS011;45288;51.136;16.928;2023-08-17T07:07:23;83.97;;;76.45;;
59474;SDS011;45288;51.136;16.928;2023-08-17T07:09:48;87.30;;;79.67;;
59474;SDS011;45288;51.136;16.928;2023-08-17T07:12:14;82.78;;;76.25;;
59474;SDS011;45288;51.136;16.928;2023-08-17T07:14:39;88.38;;;72.53;;
59474;SDS011;45288;51.136;16.928;2023-08-17T07:17:05;62.10;;;55.65;;
59474;SDS011;45288;51.136;16.928;2023-08-17T07:19:31;55.13;;;45.43;;
59474;SDS011;45288;51.136;16.928;2023-08-17T07:21:56;45.78;;;40.50;;
59474;SDS011;45288;51.136;16.928;2023-08-17T07:24:22;59.67;;;49.10;;
59474;SDS011;45288;51.136;16.928;2023-08-17T07:26:47;51.47;;;46.45;;
59474;SDS011;45288;51.136;16.928;2023-08-17T07:29:13;45.30;;;40.60;;
59474;SDS011;45288;51.136;16.928;2023-08-17T07:31:39;46.23;;;42.07;;
59474;SDS011;45288;51.136;16.928;2023-08-17T07:34:05;36.85;;;30.58;;
59474;SDS011;45288;51.136;16.928;2023-08-17T07:36:31;53.28;;;48.25;;
59474;SDS011;45288;51.136;16.928;2023-08-17T07:38:56;44.63;;;40.47;;
59474;SDS011;45288;51.136;16.928;2023-08-17T07:41:22;32.67;;;21.17;;
59474;SDS011;45288;51.136;16.928;2023-08-17T07:43:48;27.90;;;23.10;;
59474;SDS011;45288;51.136;16.928;2023-08-17T07:46:15;34.13;;;24.27;;
59474;SDS011;45288;51.136;16.928;2023-08-17T07:48:41;22.85;;;11.80;;
59474;SDS011;45288;51.136;16.928;2023-08-17T07:51:06;29.95;;;9.95;;
59474;SDS011;45288;51.136;16.928;2023-08-17T07:53:32;30.00;;;9.77;;
59474;SDS011;45288;51.136;16.928;2023-08-17T07:55:57;25.07;;;10.03;;
59474;SDS011;45288;51.136;16.928;2023-08-17T07:58:23;27.02;;;9.50;;
59474;SDS011;45288;51.136;16.928;2023-08-17T08:00:49;21.63;;;8.32;;
59474;SDS011;45288;51.136;16.928;2023-08-17T08:03:15;22.37;;;8.73;;
59474;SDS011;45288;51.136;16.928;2023-08-17T08:05:40;19.98;;;8.32;;
59474;SDS011;45288;51.136;16.928;2023-08-17T08:08:06;19.67;;;8.52;;
59474;SDS011;45288;51.136;16.928;2023-08-17T08:10:32;32.27;;;21.23;;
59474;SDS011;45288;51.136;16.928;2023-08-17T08:12:58;22.42;;;13.00;;
59474;SDS011;45288;51.136;16.928;2023-08-17T08:15:23;43.97;;;39.67;;
59474;SDS011;45288;51.136;16.928;2023-08-17T08:17:49;46.63;;;42.70;;
59474;SDS011;45288;51.136;16.928;2023-08-17T08:20:14;51.87;;;47.43;;
59474;SDS011;45288;51.136;16.928;2023-08-17T08:22:40;46.50;;;42.60;;
59474;SDS011;45288;51.136;16.928;2023-08-17T08:25:06;52.00;;;47.70;;
59474;SDS011;45288;51.136;16.928;2023-08-17T08:27:32;64.90;;;58.78;;
59474;SDS011;45288;51.136;16.928;2023-08-17T08:29:57;132.05;;;122.65;;
59474;SDS011;45288;51.136;16.928;2023-08-17T08:32:23;122.53;;;113.43;;
59474;SDS011;45288;51.136;16.928;2023-08-17T08:34:49;134.87;;;125.00;;
59474;SDS011;45288;51.136;16.928;2023-08-17T08:37:15;146.90;;;135.63;;
59474;SDS011;45288;51.136;16.928;2023-08-17T08:39:53;134.07;;;124.23;;
59474;SDS011;45288;51.136;16.928;2023-08-17T08:42:21;128.68;;;118.78;;
59474;SDS011;45288;51.136;16.928;2023-08-17T08:44:46;128.73;;;119.00;;
59474;SDS011;45288;51.136;16.928;2023-08-17T08:47:13;122.65;;;113.45;;
59474;SDS011;45288;51.136;16.928;2023-08-17T08:49:40;122.00;;;112.75;;
59474;SDS011;45288;51.136;16.928;2023-08-17T08:52:08;122.55;;;113.72;;
59474;SDS011;45288;51.136;16.928;2023-08-17T08:54:38;134.85;;;124.38;;
59474;SDS011;45288;51.136;16.928;2023-08-17T08:57:04;126.63;;;117.50;;
59474;SDS011;45288;51.136;16.928;2023-08-17T08:59:33;145.18;;;133.90;;
59474;SDS011;45288;51.136;16.928;2023-08-17T09:01:59;132.98;;;123.13;;
59474;SDS011;45288;51.136;16.928;2023-08-17T09:04:26;183.65;;;169.40;;
59474;SDS011;45288;51.136;16.928;2023-08-17T09:06:53;87.63;;;81.38;;
59474;SDS011;45288;51.136;16.928;2023-08-17T09:09:19;85.68;;;78.55;;
59474;SDS011;45288;51.136;16.928;2023-08-17T09:11:45;50.43;;;45.93;;
59474;SDS011;45288;51.136;16.928;2023-08-17T09:14:10;36.97;;;33.17;;
59474;SDS011;45288;51.136;16.928;2023-08-17T09:16:36;57.78;;;52.00;;
59474;SDS011;45288;51.136;16.928;2023-08-17T09:19:02;67.78;;;62.38;;
59474;SDS011;45288;51.136;16.928;2023-08-17T09:21:32;56.58;;;50.88;;
59474;SDS011;45288;51.136;16.928;2023-08-17T09:23:58;102.40;;;94.97;;
59474;SDS011;45288;51.136;16.928;2023-08-17T09:26:24;70.07;;;64.33;;
59474;SDS011;45288;51.136;16.928;2023-08-17T09:28:50;71.07;;;65.60;;
59474;SDS011;45288;51.136;16.928;2023-08-17T09:31:15;72.88;;;66.72;;
59474;SDS011;45288;51.136;16.928;2023-08-17T09:33:41;74.20;;;68.43;;
59474;SDS011;45288;51.136;16.928;2023-08-17T09:36:09;109.60;;;101.40;;
59474;SDS011;45288;51.136;16.928;2023-08-17T09:38:35;36.38;;;31.85;;
59474;SDS011;45288;51.136;16.928;2023-08-17T09:41:03;47.50;;;43.13;;
59474;SDS011;45288;51.136;16.928;2023-08-17T09:43:29;37.03;;;26.33;;
59474;SDS011;45288;51.136;16.928;2023-08-17T09:45:58;30.77;;;27.87;;
59474;SDS011;45288;51.136;16.928;2023-08-17T09:48:25;117.90;;;108.57;;
59474;SDS011;45288;51.136;16.928;2023-08-17T09:50:50;472.85;;;431.48;;
59474;SDS011;45288;51.136;16.928;2023-08-17T09:53:17;665.95;;;606.97;;
59474;SDS011;45288;51.136;16.928;2023-08-17T09:55:46;424.85;;;388.20;;
59474;SDS011;45288;51.136;16.928;2023-08-17T09:58:12;734.35;;;670.40;;
59474;SDS011;45288;51.136;16.928;2023-08-17T10:00:45;1320.43;;;999.90;;
59474;SDS011;45288;51.136;16.928;2023-08-17T10:03:11;1323.85;;;999.90;;
59474;SDS011;45288;51.136;16.928;2023-08-17T10:05:40;1261.85;;;999.90;;
59474;SDS011;45288;51.136;16.928;2023-08-17T10:08:06;1173.55;;;999.90;;
59474;SDS011;45288;51.136;16.928;2023-08-17T10:10:33;350.65;;;321.10;;
59474;SDS011;45288;51.136;16.928;2023-08-17T10:15:36;272.40;;;249.75;;
59474;SDS011;45288;51.136;16.928;2023-08-17T10:20:41;293.73;;;269.98;;
59474;SDS011;45288;51.136;16.928;2023-08-17T10:23:08;285.55;;;261.98;;
59474;SDS011;45288;51.136;16.928;2023-08-17T10:25:36;284.42;;;260.83;;
59474;SDS011;45288;51.136;16.928;2023-08-17T10:28:03;414.58;;;378.58;;
59474;SDS011;45288;51.136;16.928;2023-08-17T10:30:29;623.63;;;568.42;;
59474;SDS011;45288;51.136;16.928;2023-08-17T10:32:55;481.92;;;439.90;;
59474;SDS011;45288;51.136;16.928;2023-08-17T10:35:21;448.48;;;409.30;;
59474;SDS011;45288;51.136;16.928;2023-08-17T10:37:47;520.75;;;474.52;;
59474;SDS011;45288;51.136;16.928;2023-08-17T10:40:13;1227.82;;;999.90;;
59474;SDS011;45288;51.136;16.928;2023-08-17T10:42:39;428.65;;;391.30;;
59474;SDS011;45288;51.136;16.928;2023-08-17T10:47:49;1028.00;;;942.47;;
59474;SDS011;45288;51.136;16.928;2023-08-17T10:50:21;1102.47;;;999.90;;
59474;SDS011;45288;51.136;16.928;2023-08-17T10:52:48;1309.80;;;999.90;;
59474;SDS011;45288;51.136;16.928;2023-08-17T10:55:14;1224.28;;;999.90;;
59474;SDS011;45288;51.136;16.928;2023-08-17T10:57:40;1139.38;;;999.90;;
59474;SDS011;45288;51.136;16.928;2023-08-17T11:00:07;984.45;;;901.75;;
59474;SDS011;45288;51.136;16.928;2023-08-17T11:02:33;640.53;;;583.67;;
59474;SDS011;45288;51.136;16.928;2023-08-17T11:04:59;795.57;;;726.63;;
59474;SDS011;45288;51.136;16.928;2023-08-17T11:07:27;916.80;;;838.28;;
59474;SDS011;45288;51.136;16.928;2023-08-17T11:09:53;1005.95;;;921.10;;
59474;SDS011;45288;51.136;16.928;2023-08-17T11:12:26;939.60;;;859.17;;
59474;SDS011;45288;51.136;16.928;2023-08-17T11:14:52;1258.45;;;999.90;;
59474;SDS011;45288;51.136;16.928;2023-08-17T11:17:21;504.98;;;459.50;;
59474;SDS011;45288;51.136;16.928;2023-08-17T11:19:46;537.35;;;488.73;;
59474;SDS011;45288;51.136;16.928;2023-08-17T11:22:12;490.27;;;445.90;;
59474;SDS011;45288;51.136;16.928;2023-08-17T11:24:38;481.50;;;437.38;;
59474;SDS011;45288;51.136;16.928;2023-08-17T11:27:05;475.08;;;432.45;;
59474;SDS011;45288;51.136;16.928;2023-08-17T11:29:31;480.93;;;437.73;;
59474;SDS011;45288;51.136;16.928;2023-08-17T11:31:57;458.60;;;417.60;;
59474;SDS011;45288;51.136;16.928;2023-08-17T11:34:23;339.13;;;309.63;;
59474;SDS011;45288;51.136;16.928;2023-08-17T11:36:49;584.08;;;531.78;;
59474;SDS011;45288;51.136;16.928;2023-08-17T11:39:15;515.87;;;469.60;;
59474;SDS011;45288;51.136;16.928;2023-08-17T11:41:40;1078.23;;;987.53;;
59474;SDS011;45288;51.136;16.928;2023-08-17T11:44:06;891.85;;;814.90;;
59474;SDS011;45288;51.136;16.928;2023-08-17T11:46:32;1022.93;;;936.93;;
59474;SDS011;45288;51.136;16.928;2023-08-17T11:49:00;1072.17;;;982.70;;
59474;SDS011;45288;51.136;16.928;2023-08-17T11:51:32;1287.88;;;999.90;;
59474;SDS011;45288;51.136;16.928;2023-08-17T11:53:58;1369.50;;;999.90;;
59474;SDS011;45288;51.136;16.928;2023-08-17T11:56:24;367.50;;;335.20;;
59474;SDS011;45288;51.136;16.928;2023-08-17T11:58:49;304.67;;;279.02;;
59474;SDS011;45288;51.136;16.928;2023-08-17T12:01:15;265.58;;;242.93;;
59474;SDS011;45288;51.136;16.928;2023-08-17T12:03:41;253.77;;;232.87;;
59474;SDS011;45288;51.136;16.928;2023-08-17T12:06:07;200.48;;;184.32;;
59474;SDS011;45288;51.136;16.928;2023-08-17T12:08:34;219.05;;;200.88;;
59474;SDS011;45288;51.136;16.928;2023-08-17T12:11:00;190.93;;;175.43;;
59474;SDS011;45288;51.136;16.928;2023-08-17T12:13:34;198.82;;;182.10;;
59474;SDS011;45288;51.136;16.928;2023-08-17T12:16:00;195.83;;;179.77;;
59474;SDS011;45288;51.136;16.928;2023-08-17T12:18:26;184.80;;;168.52;;
59474;SDS011;45288;51.136;16.928;2023-08-17T12:20:55;152.60;;;140.03;;
59474;SDS011;45288;51.136;16.928;2023-08-17T12:23:21;129.67;;;119.20;;
59474;SDS011;45288;51.136;16.928;2023-08-17T12:25:51;130.60;;;118.93;;
59474;SDS011;45288;51.136;16.928;2023-08-17T12:28:17;144.50;;;132.27;;
59474;SDS011;45288;51.136;16.928;2023-08-17T12:30:43;150.07;;;137.53;;
59474;SDS011;45288;51.136;16.928;2023-08-17T12:33:08;148.63;;;136.63;;
59474;SDS011;45288;51.136;16.928;2023-08-17T12:35:34;151.17;;;138.13;;
59474;SDS011;45288;51.136;16.928;2023-08-17T12:37:59;132.90;;;122.23;;
59474;SDS011;45288;51.136;16.928;2023-08-17T12:40:25;133.87;;;122.57;;
59474;SDS011;45288;51.136;16.928;2023-08-17T12:42:50;140.65;;;129.60;;
59474;SDS011;45288;51.136;16.928;2023-08-17T12:45:16;130.00;;;119.07;;
59474;SDS011;45288;51.136;16.928;2023-08-17T12:47:42;171.35;;;156.20;;
59474;SDS011;45288;51.136;16.928;2023-08-17T12:50:08;156.70;;;144.10;;
59474;SDS011;45288;51.136;16.928;2023-08-17T12:52:34;161.40;;;147.93;;
59474;SDS011;45288;51.136;16.928;2023-08-17T12:55:00;152.65;;;139.30;;
59474;SDS011;45288;51.136;16.928;2023-08-17T12:57:25;129.07;;;118.03;;
59474;SDS011;45288;51.136;16.928;2023-08-17T12:59:52;116.53;;;107.13;;
59474;SDS011;45288;51.136;16.928;2023-08-17T13:02:19;146.25;;;134.55;;
59474;SDS011;45288;51.136;16.928;2023-08-17T13:04:45;124.15;;;114.30;;
59474;SDS011;45288;51.136;16.928;2023-08-17T13:07:11;104.43;;;95.72;;
59474;SDS011;45288;51.136;16.928;2023-08-17T13:09:37;104.13;;;95.60;;
59474;SDS011;45288;51.136;16.928;2023-08-17T13:12:02;97.35;;;89.72;;
59474;SDS011;45288;51.136;16.928;2023-08-17T13:14:28;121.27;;;111.20;;
59474;SDS011;45288;51.136;16.928;2023-08-17T13:16:54;139.85;;;128.38;;
59474;SDS011;45288;51.136;16.928;2023-08-17T13:19:19;130.50;;;119.90;;
59474;SDS011;45288;51.136;16.928;2023-08-17T13:21:45;131.40;;;121.20;;
59474;SDS011;45288;51.136;16.928;2023-08-17T13:24:11;136.80;;;125.30;;
59474;SDS011;45288;51.136;16.928;2023-08-17T13:26:36;140.70;;;129.43;;
59474;SDS011;45288;51.136;16.928;2023-08-17T13:29:02;134.05;;;123.28;;
59474;SDS011;45288;51.136;16.928;2023-08-17T13:31:29;143.00;;;131.23;;
59474;SDS011;45288;51.136;16.928;2023-08-17T13:33:54;134.35;;;123.68;;
59474;SDS011;45288;51.136;16.928;2023-08-17T13:36:20;139.77;;;128.37;;
59474;SDS011;45288;51.136;16.928;2023-08-17T13:38:45;148.53;;;136.60;;
59474;SDS011;45288;51.136;16.928;2023-08-17T13:41:11;172.07;;;156.57;;
59474;SDS011;45288;51.136;16.928;2023-08-17T13:43:37;159.03;;;145.13;;
59474;SDS011;45288;51.136;16.928;2023-08-17T13:46:02;147.85;;;135.32;;
59474;SDS011;45288;51.136;16.928;2023-08-17T13:48:28;125.88;;;115.63;;
59474;SDS011;45288;51.136;16.928;2023-08-17T13:50:54;143.25;;;131.20;;
59474;SDS011;45288;51.136;16.928;2023-08-17T13:53:20;105.77;;;96.77;;
59474;SDS011;45288;51.136;16.928;2023-08-17T13:55:45;127.93;;;117.28;;
59474;SDS011;45288;51.136;16.928;2023-08-17T13:58:11;158.18;;;145.25;;
59474;SDS011;45288;51.136;16.928;2023-08-17T14:00:37;165.50;;;151.15;;